Atwood, Oklahoma
Current Conditions -  °F | °C
As of 8:35 PM on Sunday 23 Nov 2014 (Local Time) from KADH Reporting Station
Broken Clouds Broken Clouds  
Wind Chill: 37°   Ceiling: 2200
Heat Index: 45°   Visibility: 10mi
Dew Point: 41°   Wind: 17mph
Humidity: 87%   Direction: 340°NNW
Pressure: 29.62"   Gusts: 33mph
Location:  34.96°N, 96.34°W
Report Text: KADH 240235Z AUTO 34015G29KT 10SM BKN022 BKN028 BKN055 07/05 A2962 RMK AO2
Loading
Personal Weather Stations






























Interactive Weather Map New forecast layout! Learn more

10-Day Weather Forecast

Advertisements
Track Severe Weather on mobile